createdAt,value
2018-07-19T00:01:01.919Z,2.03
2018-07-19T00:04:05.278Z,1.90
2018-07-19T00:07:08.904Z,2.30
2018-07-19T00:10:12.350Z,2.40
2018-07-19T00:13:15.595Z,2.33
2018-07-19T00:16:19.752Z,2.00
2018-07-19T00:19:23.572Z,1.90
2018-07-19T00:22:30.268Z,2.20
2018-07-19T00:25:33.931Z,2.40
2018-07-19T00:28:38.448Z,1.77
2018-07-19T00:31:44.194Z,1.93
2018-07-19T00:34:47.527Z,2.10
2018-07-19T00:37:50.614Z,2.20
2018-07-19T00:40:53.788Z,2.20
2018-07-19T00:43:57.628Z,2.43
2018-07-19T00:47:01.498Z,2.80
2018-07-19T00:50:04.350Z,2.43
2018-07-19T00:53:06.850Z,2.37
2018-07-19T00:56:10.134Z,2.73
2018-07-19T00:59:14.373Z,2.40
2018-07-19T01:02:17.565Z,2.10
2018-07-19T01:05:20.273Z,2.47
2018-07-19T01:08:23.928Z,2.50
2018-07-19T01:11:30.029Z,2.20
2018-07-19T01:14:32.885Z,1.97
2018-07-19T01:17:35.635Z,2.47
2018-07-19T01:20:38.300Z,2.20
2018-07-19T01:23:41.813Z,2.30
2018-07-19T01:26:44.299Z,2.20
2018-07-19T01:29:46.929Z,2.20
2018-07-19T01:32:51.622Z,2.60
2018-07-19T01:35:54.239Z,2.33
2018-07-19T01:38:56.944Z,2.50
2018-07-19T01:42:20.239Z,2.20
2018-07-19T01:45:23.673Z,2.63
2018-07-19T01:48:27.050Z,2.57
2018-07-19T01:51:29.676Z,1.73
2018-07-19T01:54:32.366Z,2.83
2018-07-19T01:57:35.140Z,2.60
2018-07-19T02:00:37.702Z,2.70
2018-07-19T02:03:40.408Z,2.37
2018-07-19T02:06:42.969Z,2.40
2018-07-19T02:09:46.767Z,2.53
2018-07-19T02:12:49.555Z,2.77
2018-07-19T02:16:56.475Z,2.63
2018-07-19T02:20:00.209Z,2.43
2018-07-19T02:23:02.893Z,2.80
2018-07-19T02:26:05.573Z,2.87
2018-07-19T02:29:07.871Z,2.63
2018-07-19T02:32:10.189Z,2.50
2018-07-19T02:35:13.618Z,2.70
2018-07-19T02:38:16.177Z,2.50
2018-07-19T02:41:18.617Z,2.77
2018-07-19T02:44:22.040Z,2.60
2018-07-19T02:47:24.604Z,2.70
2018-07-19T02:50:27.300Z,2.60
2018-07-19T02:53:30.026Z,3.00
2018-07-19T02:56:32.675Z,3.17
2018-07-19T02:59:35.320Z,3.10
2018-07-19T03:02:38.876Z,3.00
2018-07-19T03:05:41.484Z,2.83
2018-07-19T03:08:44.146Z,3.20
2018-07-19T03:11:46.864Z,2.80
2018-07-19T03:14:50.717Z,2.90
2018-07-19T03:17:53.406Z,3.17
2018-07-19T03:20:55.994Z,3.40
2018-07-19T03:23:58.700Z,3.33
2018-07-19T03:27:01.484Z,3.10
2018-07-19T03:30:04.806Z,3.23
2018-07-19T03:33:07.601Z,3.70
2018-07-19T03:36:10.097Z,3.27
2018-07-19T03:39:13.751Z,2.97
2018-07-19T03:42:16.486Z,3.50
2018-07-19T03:45:19.183Z,3.77
2018-07-19T03:48:21.874Z,2.93
2018-07-19T03:51:24.413Z,3.20
2018-07-19T03:54:30.337Z,3.60
2018-07-19T03:57:32.984Z,2.80
2018-07-19T04:00:35.738Z,3.30
2018-07-19T04:03:39.460Z,3.47
2018-07-19T04:06:42.322Z,3.03
2018-07-19T04:09:45.807Z,3.70
2018-07-19T04:12:48.476Z,2.93
2018-07-19T04:15:51.216Z,2.43
2018-07-19T04:18:53.796Z,2.87
2018-07-19T04:21:56.483Z,2.70
2018-07-19T04:24:59.236Z,3.20
2018-07-19T04:28:01.700Z,2.97
2018-07-19T04:31:04.490Z,2.87
2018-07-19T04:34:06.925Z,2.70
2018-07-19T04:37:09.402Z,2.47
2018-07-19T04:40:11.843Z,2.20
2018-07-19T04:43:14.361Z,2.33
2018-07-19T04:46:17.174Z,2.17
2018-07-19T04:49:23.073Z,2.00
2018-07-19T04:52:25.639Z,2.20
2018-07-19T04:55:28.316Z,2.13
2018-07-19T04:58:30.881Z,2.20
2018-07-19T05:01:33.615Z,2.93
2018-07-19T05:04:35.918Z,2.37
2018-07-19T05:07:38.198Z,2.87
2018-07-19T05:10:40.802Z,3.07
2018-07-19T05:13:46.419Z,3.03
2018-07-19T05:16:49.093Z,3.10
2018-07-19T05:19:51.731Z,2.60
2018-07-19T05:22:54.555Z,2.70
2018-07-19T05:25:57.200Z,2.87
2018-07-19T05:28:59.851Z,2.90
2018-07-19T05:32:02.568Z,2.67
2018-07-19T05:35:05.332Z,3.17
2018-07-19T05:38:08.033Z,3.33
2018-07-19T05:41:10.847Z,2.63
2018-07-19T05:44:13.471Z,3.07
2018-07-19T05:47:16.380Z,3.47
2018-07-19T05:50:19.035Z,3.17
2018-07-19T05:53:21.676Z,3.27
2018-07-19T05:56:24.485Z,3.13
2018-07-19T05:59:26.981Z,2.97
2018-07-19T06:02:29.596Z,2.87
2018-07-19T06:05:32.084Z,2.83
2018-07-19T06:08:34.339Z,2.67
2018-07-19T06:11:36.655Z,2.50
2018-07-19T06:14:38.989Z,2.90
2018-07-19T06:17:41.366Z,3.30
2018-07-19T06:20:43.742Z,3.17
2018-07-19T06:23:46.116Z,3.37
2018-07-19T06:26:48.535Z,3.17
2018-07-19T06:29:52.211Z,3.13
2018-07-19T06:32:54.706Z,2.60
2018-07-19T06:35:59.074Z,3.20
2018-07-19T06:39:01.677Z,3.20
2018-07-19T06:42:03.927Z,3.47
2018-07-19T06:45:07.230Z,3.17
2018-07-19T06:48:09.467Z,2.63
2018-07-19T06:51:12.418Z,3.57
2018-07-19T06:54:14.722Z,3.10
2018-07-19T06:57:17.150Z,2.73
2018-07-19T07:00:19.750Z,2.83
2018-07-19T07:03:23.354Z,2.73
2018-07-19T07:06:25.906Z,2.90
2018-07-19T07:09:28.534Z,2.80
2018-07-19T07:12:31.053Z,2.80
2018-07-19T07:15:33.403Z,2.87
2018-07-19T07:18:35.756Z,3.00
2018-07-19T07:21:38.009Z,2.60
2018-07-19T07:24:40.225Z,2.80
2018-07-19T07:27:42.506Z,2.57
2018-07-19T07:30:46.186Z,2.00
2018-07-19T07:33:48.844Z,2.40
2018-07-19T07:36:51.391Z,2.27
2018-07-19T07:39:53.933Z,1.97
2018-07-19T07:45:58.878Z,1.97
2018-07-19T07:49:01.428Z,2.00
2018-07-19T07:52:04.125Z,2.03
2018-07-19T07:55:06.666Z,2.10
2018-07-19T07:58:09.021Z,2.20
2018-07-19T08:01:11.305Z,1.80
2018-07-19T08:04:13.556Z,2.03
2018-07-19T08:07:15.928Z,1.77
2018-07-19T08:10:19.403Z,1.90
2018-07-19T08:13:21.962Z,2.33
2018-07-19T08:16:25.513Z,1.50
2018-07-19T08:19:29.061Z,2.00
2018-07-19T08:22:31.623Z,1.83
2018-07-19T08:25:34.180Z,1.80
2018-07-19T08:28:36.756Z,1.80
2018-07-19T08:31:39.330Z,1.80
2018-07-19T08:34:41.639Z,1.90
2018-07-19T08:37:44.101Z,1.83
2018-07-19T08:40:46.448Z,1.77
2018-07-19T08:43:48.750Z,1.60
2018-07-19T08:46:51.065Z,1.50
2018-07-19T08:49:53.446Z,1.50
2018-07-19T08:52:55.685Z,2.17
2018-07-19T08:55:58.064Z,1.80
2018-07-19T08:59:05.105Z,1.80
2018-07-19T09:02:07.586Z,2.00
2018-07-19T09:05:10.094Z,1.63
2018-07-19T09:08:12.512Z,1.60
2018-07-19T09:11:16.284Z,1.67
2018-07-19T09:14:18.844Z,1.90
2018-07-19T09:17:22.390Z,1.70
2018-07-19T09:20:25.049Z,2.03
2018-07-19T09:23:27.532Z,2.13
2018-07-19T09:26:30.111Z,2.20
2018-07-19T09:29:32.611Z,1.93
2018-07-19T09:32:36.240Z,2.07
2018-07-19T09:35:39.367Z,1.80
2018-07-19T09:38:41.912Z,2.10
2018-07-19T09:41:53.794Z,2.07
2018-07-19T09:44:57.132Z,1.97
2018-07-19T09:47:59.557Z,2.20
2018-07-19T09:51:02.793Z,1.90
2018-07-19T09:54:07.267Z,2.30
2018-07-19T09:57:09.718Z,1.83
2018-07-19T10:00:12.317Z,1.60
2018-07-19T10:03:15.906Z,1.83
2018-07-19T10:06:18.542Z,2.00
2018-07-19T10:09:21.226Z,1.80
2018-07-19T10:12:23.932Z,1.80
2018-07-19T10:15:27.474Z,1.93
2018-07-19T10:18:30.190Z,2.00
2018-07-19T10:21:34.719Z,2.07
2018-07-19T10:24:37.023Z,2.37
2018-07-19T10:27:39.443Z,1.40
2018-07-19T10:30:42.905Z,2.00
2018-07-19T10:33:46.437Z,1.87
2018-07-19T10:36:49.919Z,1.90
2018-07-19T10:39:56.575Z,1.77
2018-07-19T10:42:59.008Z,1.83
2018-07-19T10:46:01.601Z,2.23
2018-07-19T10:49:04.155Z,1.63
2018-07-19T10:52:06.717Z,2.07
2018-07-19T10:55:09.026Z,1.33
2018-07-19T10:58:13.362Z,1.70
2018-07-19T11:01:20.596Z,1.73
2018-07-19T11:04:23.963Z,1.73
2018-07-19T11:07:27.489Z,1.63
2018-07-19T11:10:33.945Z,1.73
2018-07-19T11:13:37.294Z,1.50
2018-07-19T11:16:44.606Z,1.80
2018-07-19T11:19:47.154Z,1.70
2018-07-19T11:22:49.710Z,1.60
2018-07-19T11:25:52.164Z,1.50
2018-07-19T11:28:54.630Z,2.30
2018-07-19T11:31:57.232Z,1.60
2018-07-19T11:34:59.702Z,1.90
2018-07-19T11:38:03.060Z,1.90
2018-07-19T11:41:07.354Z,1.90
2018-07-19T11:44:09.670Z,1.90
2018-07-19T11:47:12.168Z,1.90
2018-07-19T11:50:14.663Z,1.57
2018-07-19T11:53:18.258Z,1.90
2018-07-19T11:56:20.690Z,1.70
2018-07-19T11:59:23.247Z,1.90
2018-07-19T12:02:29.097Z,1.87
2018-07-19T12:05:31.606Z,1.63
2018-07-19T12:08:34.136Z,1.77
2018-07-19T12:11:36.450Z,1.70
2018-07-19T12:14:40.836Z,1.83
2018-07-19T12:17:43.209Z,1.77
2018-07-19T12:20:46.603Z,1.67
2018-07-19T12:23:51.236Z,2.00
2018-07-19T12:26:53.862Z,1.87
2018-07-19T12:29:56.394Z,2.00
2018-07-19T12:32:58.890Z,1.97
2018-07-19T12:36:01.408Z,1.67
2018-07-19T12:39:07.077Z,1.73
2018-07-19T12:42:10.678Z,2.00
2018-07-19T12:45:13.243Z,1.60
2018-07-19T12:48:15.581Z,1.67
2018-07-19T12:51:25.071Z,1.87
2018-07-19T12:54:28.737Z,1.73
2018-07-19T12:57:31.296Z,1.73
2018-07-19T13:00:33.855Z,1.80
2018-07-19T13:03:37.370Z,2.30
2018-07-19T13:06:45.977Z,1.90
2018-07-19T13:09:53.640Z,1.80
2018-07-19T13:12:56.225Z,2.07
2018-07-19T13:16:03.614Z,2.03
2018-07-19T13:19:08.090Z,2.00
2018-07-19T13:22:10.695Z,2.00
2018-07-19T13:25:19.386Z,1.90
2018-07-19T13:28:21.863Z,2.10
2018-07-19T13:31:24.165Z,2.00
2018-07-19T13:34:26.658Z,2.43
2018-07-19T13:37:29.047Z,1.80
2018-07-19T13:40:36.107Z,1.73
2018-07-19T13:43:40.731Z,1.63
2018-07-19T13:46:43.297Z,1.80
2018-07-19T13:49:45.853Z,1.90
2018-07-19T13:52:59.486Z,1.90
2018-07-19T13:56:02.598Z,1.60
2018-07-19T13:59:04.962Z,1.87
2018-07-19T14:02:07.444Z,1.60
2018-07-19T14:05:09.973Z,1.93
2018-07-19T14:08:12.558Z,1.60
2018-07-19T14:11:15.173Z,1.90
2018-07-19T14:14:17.774Z,1.77
2018-07-19T14:17:20.204Z,1.80
2018-07-19T14:20:22.721Z,1.80
2018-07-19T14:23:27.163Z,1.97
2018-07-19T14:26:30.769Z,2.83
2018-07-19T14:29:33.206Z,1.70
2018-07-19T14:32:35.552Z,1.90
2018-07-19T14:35:37.938Z,1.70
2018-07-19T14:38:40.335Z,1.77
2018-07-19T14:41:42.948Z,1.70
2018-07-19T14:44:45.438Z,1.83
2018-07-19T14:47:48.914Z,1.67
2018-07-19T14:50:51.517Z,1.93
2018-07-19T14:53:53.848Z,1.90
2018-07-19T14:56:56.312Z,1.57
2018-07-19T14:59:58.864Z,1.43
2018-07-19T15:03:02.528Z,1.90
2018-07-19T15:06:05.128Z,2.03
2018-07-19T15:09:08.439Z,2.00
2018-07-19T15:12:10.774Z,1.90
2018-07-19T15:15:14.058Z,1.60
2018-07-19T15:18:16.478Z,1.80
2018-07-19T15:21:19.097Z,1.33
2018-07-19T15:24:21.669Z,1.87
2018-07-19T15:27:24.008Z,1.73
2018-07-19T15:30:26.408Z,1.70
2018-07-19T15:33:28.744Z,2.30
2018-07-19T15:36:33.122Z,2.10
2018-07-19T15:39:36.494Z,1.70
2018-07-19T15:42:38.830Z,1.40
2018-07-19T15:45:41.291Z,1.57
2018-07-19T15:48:44.602Z,1.80
2018-07-19T15:51:46.996Z,1.53
2018-07-19T15:54:49.360Z,1.70
2018-07-19T15:57:51.823Z,1.73
2018-07-19T16:00:54.342Z,1.87
2018-07-19T16:03:56.755Z,2.07
2018-07-19T16:06:59.108Z,1.70
2018-07-19T16:10:01.666Z,1.87
2018-07-19T16:13:05.205Z,1.80
2018-07-19T16:16:07.758Z,1.80
2018-07-19T16:19:10.296Z,1.70
2018-07-19T16:22:12.563Z,1.50
2018-07-19T16:25:14.915Z,1.80
2018-07-19T16:28:18.808Z,1.70
2018-07-19T16:31:21.540Z,1.80
2018-07-19T16:34:24.028Z,1.90
2018-07-19T16:37:28.330Z,1.70
2018-07-19T16:40:30.668Z,1.53
2018-07-19T16:43:33.044Z,2.27
2018-07-19T16:46:36.720Z,1.90
2018-07-19T16:49:39.275Z,1.50
2018-07-19T16:52:46.332Z,1.60
2018-07-19T16:55:48.570Z,1.93
2018-07-19T16:58:52.024Z,1.90
2018-07-19T17:01:55.623Z,1.80
2018-07-19T17:04:58.290Z,2.20
2018-07-19T17:08:00.856Z,2.10
2018-07-19T17:11:04.379Z,2.33
2018-07-19T17:14:08.145Z,2.00
2018-07-19T17:17:10.808Z,1.73
2018-07-19T17:20:13.155Z,1.90
2018-07-19T17:23:15.506Z,2.03
2018-07-19T17:26:19.849Z,1.97
2018-07-19T17:29:23.194Z,1.90
2018-07-19T17:32:25.524Z,2.27
2018-07-19T17:35:27.916Z,2.10
2018-07-19T17:38:30.361Z,2.20
2018-07-19T17:41:32.687Z,2.27
2018-07-19T17:44:36.212Z,2.30
2018-07-19T17:47:38.771Z,2.97
2018-07-19T17:50:41.321Z,3.03
2018-07-19T17:53:44.021Z,2.80
2018-07-19T17:56:46.561Z,6.50
2018-07-19T17:59:49.071Z,1.90
2018-07-19T18:02:51.398Z,1.97
2018-07-19T18:05:53.844Z,1.97
2018-07-19T18:08:56.125Z,1.53
2018-07-19T18:11:58.526Z,1.77
2018-07-19T18:15:07.413Z,2.03
2018-07-19T18:18:09.837Z,1.97
2018-07-19T18:21:14.545Z,2.13
2018-07-19T18:24:17.028Z,2.00
2018-07-19T18:27:19.616Z,2.27
2018-07-19T18:30:22.190Z,2.60
2018-07-19T18:33:25.075Z,2.60
2018-07-19T18:36:27.590Z,3.43
2018-07-19T18:39:31.243Z,2.67
2018-07-19T18:42:33.859Z,2.60
2018-07-19T18:45:36.329Z,2.50
2018-07-19T18:48:40.927Z,2.30
2018-07-19T18:51:43.598Z,2.20
2018-07-19T18:54:46.089Z,2.30
2018-07-19T18:57:48.789Z,2.10
2018-07-19T19:00:51.438Z,2.57
2018-07-19T19:03:54.085Z,1.93
2018-07-19T19:06:56.671Z,2.43
2018-07-19T19:09:59.113Z,2.00
2018-07-19T19:13:01.661Z,2.70
2018-07-19T19:16:04.284Z,2.00
2018-07-19T19:19:08.792Z,2.57
2018-07-19T19:22:11.397Z,2.60
2018-07-19T19:25:13.739Z,2.47
2018-07-19T19:28:16.197Z,1.97
2018-07-19T19:31:18.695Z,1.97
2018-07-19T19:34:21.259Z,1.73
2018-07-19T19:37:23.768Z,1.83
2018-07-19T19:40:26.358Z,1.73
2018-07-19T19:43:28.952Z,2.00
2018-07-19T19:46:31.423Z,1.97
2018-07-19T19:49:33.913Z,1.80
2018-07-19T19:52:36.497Z,1.40
2018-07-19T19:55:38.892Z,2.17
2018-07-19T19:58:41.426Z,2.17
2018-07-19T20:01:44.792Z,1.90
2018-07-19T20:04:49.273Z,2.13
2018-07-19T20:07:51.797Z,1.67
2018-07-19T20:10:54.305Z,1.63
2018-07-19T20:14:04.551Z,2.10
2018-07-19T20:17:07.266Z,2.13
2018-07-19T20:20:10.065Z,2.10
2018-07-19T20:23:18.020Z,2.20
2018-07-19T20:26:22.556Z,2.30
2018-07-19T20:29:25.047Z,2.20
2018-07-19T20:32:27.879Z,1.80
2018-07-19T20:35:30.320Z,2.30
2018-07-19T20:38:32.649Z,2.30
2018-07-19T20:41:35.271Z,2.60
2018-07-19T20:44:37.696Z,1.83
2018-07-19T20:47:40.983Z,1.73
2018-07-19T20:50:43.512Z,2.20
2018-07-19T20:53:46.046Z,2.07
2018-07-19T20:56:49.494Z,2.10
2018-07-19T20:59:51.934Z,2.20
2018-07-19T21:02:55.370Z,1.90
2018-07-19T21:05:57.836Z,2.03
2018-07-19T21:09:00.466Z,2.00
2018-07-19T21:12:03.169Z,2.27
2018-07-19T21:15:06.584Z,1.83
2018-07-19T21:18:11.075Z,2.17
2018-07-19T21:21:14.483Z,2.03
2018-07-19T21:24:21.180Z,2.10
2018-07-19T21:27:23.496Z,2.13
2018-07-19T21:30:25.803Z,1.87
2018-07-19T21:33:29.159Z,3.50
2018-07-19T21:36:31.471Z,2.50
2018-07-19T21:39:33.849Z,2.67
2018-07-19T21:42:36.274Z,2.30
2018-07-19T21:45:38.584Z,2.60
2018-07-19T21:48:41.621Z,2.10
2018-07-19T21:51:44.204Z,2.17
2018-07-19T21:54:47.338Z,2.30
2018-07-19T21:57:49.763Z,2.03
2018-07-19T22:00:59.063Z,2.50
2018-07-19T22:04:01.555Z,2.27
2018-07-19T22:07:04.359Z,1.70
2018-07-19T22:10:10.845Z,1.87
2018-07-19T22:13:13.598Z,1.67
2018-07-19T22:16:16.040Z,1.50
2018-07-19T22:19:18.923Z,1.63
2018-07-19T22:22:21.925Z,1.90
2018-07-19T22:25:26.064Z,2.33
2018-07-19T22:28:28.677Z,1.97
2018-07-19T22:31:37.921Z,1.90
2018-07-19T22:34:41.010Z,2.03
2018-07-19T22:37:43.841Z,2.80
2018-07-19T22:40:46.622Z,2.30
2018-07-19T22:43:49.785Z,2.27
2018-07-19T22:46:52.328Z,2.63
2018-07-19T22:49:54.993Z,2.30
2018-07-19T22:52:57.509Z,2.27
2018-07-19T22:56:00.273Z,1.87
2018-07-19T22:59:04.025Z,2.30
2018-07-19T23:02:07.481Z,2.53
2018-07-19T23:05:10.272Z,2.17
2018-07-19T23:08:12.800Z,2.63
2018-07-19T23:11:15.411Z,2.27
2018-07-19T23:14:18.239Z,2.37
2018-07-19T23:17:20.992Z,2.23
2018-07-19T23:20:24.146Z,2.77
2018-07-19T23:23:26.728Z,2.17
2018-07-19T23:26:29.213Z,2.27
2018-07-19T23:29:33.042Z,2.07
2018-07-19T23:32:35.511Z,2.10
2018-07-19T23:35:55.883Z,2.00
2018-07-19T23:39:10.216Z,3.00
2018-07-19T23:42:20.843Z,2.47
2018-07-19T23:45:59.548Z,2.50
2018-07-19T23:49:04.998Z,2.00
2018-07-19T23:52:07.514Z,2.10
2018-07-19T23:55:10.936Z,2.27
2018-07-19T23:58:13.299Z,2.53
